createdAt,value
2022-07-26T00:01:48.593Z,2.53
2022-07-26T00:04:16.007Z,4.23
2022-07-26T00:06:45.018Z,5.17
2022-07-26T00:09:12.382Z,5.43
2022-07-26T00:11:39.713Z,5.83
2022-07-26T00:14:08.815Z,8.30
2022-07-26T00:16:37.664Z,5.80
2022-07-26T00:19:07.681Z,5.20
2022-07-26T00:21:36.921Z,3.00
2022-07-26T00:24:10.049Z,5.53
2022-07-26T00:26:37.497Z,5.17
2022-07-26T00:29:06.162Z,7.87
2022-07-26T00:31:33.915Z,3.83
2022-07-26T00:34:01.426Z,4.27
2022-07-26T00:36:29.755Z,6.60
2022-07-26T00:38:57.174Z,5.47
2022-07-26T00:41:25.888Z,4.53
2022-07-26T00:43:59.260Z,5.37
2022-07-26T00:46:26.788Z,5.47
2022-07-26T00:48:54.576Z,3.77
2022-07-26T00:51:22.471Z,4.23
2022-07-26T00:53:50.322Z,5.00
2022-07-26T00:56:18.138Z,4.57
2022-07-26T00:58:46.936Z,5.50
2022-07-26T01:01:14.284Z,8.13
2022-07-26T01:03:42.295Z,6.13
2022-07-26T01:06:09.866Z,6.07
2022-07-26T01:08:37.736Z,6.13
2022-07-26T01:11:05.541Z,6.93
2022-07-26T01:13:35.463Z,6.87
2022-07-26T01:16:05.132Z,9.70
2022-07-26T01:18:32.472Z,9.27
2022-07-26T01:21:13.863Z,6.77
2022-07-26T01:23:44.274Z,9.13
2022-07-26T01:26:12.631Z,13.00
2022-07-26T01:28:42.465Z,9.67
2022-07-26T01:31:10.011Z,9.37
2022-07-26T01:33:37.466Z,6.97
2022-07-26T01:36:05.628Z,7.17
2022-07-26T01:38:33.037Z,5.77
2022-07-26T01:41:01.864Z,8.63
2022-07-26T01:43:29.127Z,11.10
2022-07-26T01:45:56.699Z,7.37
2022-07-26T01:48:24.468Z,7.13
2022-07-26T01:50:54.922Z,6.63
2022-07-26T01:53:23.652Z,9.97
2022-07-26T01:55:51.112Z,6.97
2022-07-26T01:58:20.121Z,8.33
2022-07-26T02:00:48.166Z,7.97
2022-07-26T02:03:15.602Z,7.97
2022-07-26T02:05:43.056Z,8.00
2022-07-26T02:08:11.174Z,12.37
2022-07-26T02:10:57.944Z,6.90
2022-07-26T02:13:26.955Z,7.13
2022-07-26T02:15:54.380Z,8.87
2022-07-26T02:18:21.684Z,11.87
2022-07-26T02:20:48.989Z,7.77
2022-07-26T02:23:16.298Z,9.87
2022-07-26T02:25:43.683Z,6.97
2022-07-26T02:28:11.027Z,8.07
2022-07-26T02:30:40.207Z,8.53
2022-07-26T02:33:07.770Z,9.10
2022-07-26T02:35:35.471Z,8.47
2022-07-26T02:38:04.780Z,8.33
2022-07-26T02:40:33.047Z,7.17
2022-07-26T02:43:00.551Z,6.60
2022-07-26T02:45:28.552Z,7.60
2022-07-26T02:47:58.035Z,6.67
2022-07-26T02:50:27.514Z,9.67
2022-07-26T02:52:55.826Z,6.50
2022-07-26T02:55:25.958Z,6.23
2022-07-26T02:57:53.568Z,9.27
2022-07-26T03:00:24.502Z,6.47
2022-07-26T03:02:52.766Z,7.37
2022-07-26T03:05:22.307Z,8.83
2022-07-26T03:07:50.172Z,8.53
2022-07-26T03:10:17.666Z,10.20
2022-07-26T03:12:45.362Z,11.83
2022-07-26T03:15:13.096Z,9.97
2022-07-26T03:17:40.555Z,9.17
2022-07-26T03:20:10.128Z,10.73
2022-07-26T03:22:38.946Z,8.97
2022-07-26T03:25:08.031Z,6.50
2022-07-26T03:27:35.704Z,8.53
2022-07-26T03:30:03.512Z,7.07
2022-07-26T03:32:30.892Z,9.97
2022-07-26T03:34:58.210Z,6.73
2022-07-26T03:37:25.771Z,10.87
2022-07-26T03:40:15.759Z,10.63
2022-07-26T03:42:43.332Z,9.20
2022-07-26T03:45:12.908Z,6.77
2022-07-26T03:47:40.374Z,8.30
2022-07-26T03:50:09.329Z,16.53
2022-07-26T03:52:36.672Z,7.87
2022-07-26T03:55:24.634Z,8.47
2022-07-26T03:57:53.543Z,8.27
2022-07-26T04:00:20.964Z,8.43
2022-07-26T04:02:48.406Z,10.60
2022-07-26T04:05:15.755Z,5.63
2022-07-26T04:07:51.500Z,8.20
2022-07-26T04:10:22.607Z,10.60
2022-07-26T04:12:50.405Z,8.47
2022-07-26T04:15:21.210Z,8.40
2022-07-26T04:17:49.232Z,8.57
2022-07-26T04:20:17.406Z,8.13
2022-07-26T04:22:45.104Z,7.73
2022-07-26T04:25:12.524Z,6.50
2022-07-26T04:27:39.960Z,11.47
2022-07-26T04:30:14.496Z,13.37
2022-07-26T04:32:45.868Z,8.67
2022-07-26T04:35:16.708Z,9.73
2022-07-26T04:37:46.009Z,10.50
2022-07-26T04:40:21.275Z,9.83
2022-07-26T04:42:50.740Z,11.00
2022-07-26T04:45:18.789Z,12.20
2022-07-26T04:47:50.994Z,9.47
2022-07-26T04:50:20.463Z,12.70
2022-07-26T04:52:48.973Z,8.77
2022-07-26T04:55:17.342Z,9.20
2022-07-26T04:57:47.470Z,9.27
2022-07-26T05:00:23.073Z,12.50
2022-07-26T05:02:55.481Z,10.07
2022-07-26T05:05:24.131Z,6.57
2022-07-26T05:07:55.859Z,10.23
2022-07-26T05:10:30.065Z,10.40
2022-07-26T05:12:57.870Z,6.30
2022-07-26T05:15:25.845Z,9.13
2022-07-26T05:18:07.013Z,10.40
2022-07-26T05:20:39.249Z,8.73
2022-07-26T05:23:06.880Z,8.87
2022-07-26T05:25:34.472Z,7.80
2022-07-26T05:28:01.938Z,9.10
2022-07-26T05:30:29.894Z,10.80
2022-07-26T05:32:57.273Z,7.57
2022-07-26T05:35:26.150Z,6.87
2022-07-26T05:38:08.569Z,7.90
2022-07-26T05:40:35.943Z,9.83
2022-07-26T05:43:05.173Z,5.00
2022-07-26T05:45:32.664Z,7.17
2022-07-26T05:48:00.080Z,7.00
2022-07-26T05:50:29.155Z,4.33
2022-07-26T05:52:56.464Z,6.63
2022-07-26T05:55:23.763Z,4.70
2022-07-26T05:57:51.238Z,4.83
2022-07-26T06:00:23.353Z,4.53
2022-07-26T06:02:50.730Z,4.67
2022-07-26T06:05:18.343Z,9.47
2022-07-26T06:07:47.256Z,3.90
2022-07-26T06:10:14.790Z,4.53
2022-07-26T06:12:42.074Z,5.17
2022-07-26T06:15:15.634Z,5.43
2022-07-26T06:17:43.526Z,4.93
2022-07-26T06:20:12.242Z,5.73
2022-07-26T06:22:39.644Z,4.00
2022-07-26T06:25:09.625Z,5.27
2022-07-26T06:27:36.996Z,5.03
2022-07-26T06:30:07.180Z,4.03
2022-07-26T06:32:34.499Z,6.20
2022-07-26T06:35:01.905Z,6.63
2022-07-26T06:37:29.346Z,6.40
2022-07-26T06:39:56.703Z,6.20
2022-07-26T06:42:25.897Z,5.63
2022-07-26T06:44:53.195Z,7.20
2022-07-26T06:47:20.694Z,6.10
2022-07-26T06:49:48.057Z,6.70
2022-07-26T06:52:15.432Z,6.70
2022-07-26T06:54:42.811Z,5.17
2022-07-26T06:57:10.407Z,4.50
2022-07-26T06:59:39.324Z,4.63
2022-07-26T07:02:06.828Z,2.97
2022-07-26T07:04:34.524Z,4.80
2022-07-26T07:07:08.559Z,4.80
2022-07-26T07:09:37.658Z,2.67
2022-07-26T07:12:09.805Z,3.60
2022-07-26T07:14:39.853Z,3.50
2022-07-26T07:17:12.183Z,3.20
2022-07-26T07:19:41.482Z,4.30
2022-07-26T07:22:11.837Z,2.23
2022-07-26T07:24:40.832Z,3.03
2022-07-26T07:27:08.834Z,3.03
2022-07-26T07:29:41.363Z,1.87
2022-07-26T07:32:18.553Z,3.50
2022-07-26T07:34:48.139Z,2.57
2022-07-26T07:37:15.926Z,9.80
2022-07-26T07:39:43.322Z,4.43
2022-07-26T07:42:10.677Z,3.53
2022-07-26T07:44:41.397Z,4.33
2022-07-26T07:47:09.059Z,1.53
2022-07-26T07:49:37.543Z,3.03
2022-07-26T07:52:05.542Z,3.17
2022-07-26T07:54:33.117Z,2.03
2022-07-26T07:57:00.537Z,1.30
2022-07-26T07:59:27.985Z,2.97
2022-07-26T08:01:57.563Z,2.77
2022-07-26T08:04:24.942Z,4.33
2022-07-26T08:06:52.413Z,3.53
2022-07-26T08:09:20.836Z,4.80
2022-07-26T08:11:51.006Z,3.13
2022-07-26T08:14:18.976Z,4.33
2022-07-26T08:16:46.791Z,3.33
2022-07-26T08:19:16.278Z,2.33
2022-07-26T08:21:46.709Z,3.57
2022-07-26T08:24:14.493Z,4.83
2022-07-26T08:26:41.846Z,4.47
2022-07-26T08:29:09.271Z,7.47
2022-07-26T08:31:36.787Z,3.60
2022-07-26T08:34:04.339Z,3.67
2022-07-26T08:36:33.336Z,5.33
2022-07-26T08:39:00.923Z,2.10
2022-07-26T08:41:28.697Z,4.40
2022-07-26T08:44:05.008Z,4.87
2022-07-26T08:46:36.571Z,2.00
2022-07-26T08:49:06.862Z,4.00
2022-07-26T08:51:40.728Z,2.50
2022-07-26T08:54:08.123Z,5.87
2022-07-26T08:56:40.737Z,3.23
2022-07-26T08:59:20.340Z,3.10
2022-07-26T09:01:57.280Z,3.63
2022-07-26T09:04:32.160Z,6.20
2022-07-26T09:07:06.737Z,3.93
2022-07-26T09:09:37.943Z,2.37
2022-07-26T09:12:17.201Z,3.93
2022-07-26T09:14:48.099Z,4.57
2022-07-26T09:17:18.538Z,6.73
2022-07-26T09:20:02.310Z,7.40
2022-07-26T09:22:31.295Z,9.40
2022-07-26T09:24:59.510Z,4.97
2022-07-26T09:27:36.854Z,3.77
2022-07-26T09:30:08.556Z,5.17
2022-07-26T09:32:36.892Z,4.60
2022-07-26T09:35:45.444Z,6.27
2022-07-26T09:38:11.779Z,4.93
2022-07-26T09:40:39.320Z,4.57
2022-07-26T09:43:09.901Z,5.43
2022-07-26T09:45:38.867Z,5.50
2022-07-26T09:48:11.558Z,4.93
2022-07-26T09:50:39.231Z,4.10
2022-07-26T09:53:10.702Z,4.77
2022-07-26T09:55:56.660Z,4.17
2022-07-26T09:58:27.965Z,5.10
2022-07-26T10:01:00.426Z,5.10
2022-07-26T10:03:31.389Z,4.83
2022-07-26T10:05:59.370Z,2.87
2022-07-26T10:08:29.760Z,5.07
2022-07-26T10:11:06.991Z,5.57
2022-07-26T10:13:34.852Z,3.97
2022-07-26T10:16:02.310Z,5.37
2022-07-26T10:18:50.702Z,4.30
2022-07-26T10:21:22.066Z,3.87
2022-07-26T10:23:53.259Z,3.33
2022-07-26T10:26:38.949Z,4.17
2022-07-26T10:29:28.060Z,5.80
2022-07-26T10:32:20.197Z,6.70
2022-07-26T10:34:48.173Z,6.43
2022-07-26T10:37:28.039Z,5.67
2022-07-26T10:40:30.038Z,3.73
2022-07-26T10:43:38.868Z,4.23
2022-07-26T10:46:28.030Z,3.33
2022-07-26T10:49:01.636Z,4.57
2022-07-26T10:51:34.576Z,6.00
2022-07-26T10:54:03.168Z,4.47
2022-07-26T10:56:33.683Z,4.30
2022-07-26T10:59:02.016Z,7.47
2022-07-26T11:01:34.290Z,5.33
2022-07-26T11:04:03.797Z,5.70
2022-07-26T11:06:32.363Z,6.67
2022-07-26T11:09:11.111Z,4.17
2022-07-26T11:11:40.068Z,3.87
2022-07-26T11:14:17.860Z,4.57
2022-07-26T11:16:49.902Z,6.20
2022-07-26T11:19:19.417Z,2.33
2022-07-26T11:21:53.829Z,3.33
2022-07-26T11:24:22.145Z,2.10
2022-07-26T11:26:51.172Z,3.93
2022-07-26T11:29:35.146Z,4.53
2022-07-26T11:32:17.875Z,3.10
2022-07-26T11:34:46.779Z,3.37
2022-07-26T11:37:14.790Z,4.23
2022-07-26T11:39:42.149Z,4.70
2022-07-26T11:42:15.078Z,5.07
2022-07-26T11:44:45.175Z,4.13
2022-07-26T11:47:14.563Z,2.57
2022-07-26T11:49:52.277Z,5.60
2022-07-26T11:52:31.552Z,4.70
2022-07-26T11:54:59.724Z,4.70
2022-07-26T11:57:32.544Z,4.00
2022-07-26T12:00:01.512Z,9.07
2022-07-26T12:02:30.709Z,3.30
2022-07-26T12:05:19.126Z,7.13
2022-07-26T12:07:56.331Z,8.00
2022-07-26T12:10:24.352Z,9.07
2022-07-26T12:13:08.133Z,6.07
2022-07-26T12:15:48.932Z,4.07
2022-07-26T12:18:24.819Z,4.73
2022-07-26T12:21:06.670Z,5.93
2022-07-26T12:23:43.955Z,10.83
2022-07-26T12:26:23.362Z,7.73
2022-07-26T12:28:53.184Z,5.33
2022-07-26T12:31:25.793Z,6.40
2022-07-26T12:33:53.572Z,5.90
2022-07-26T12:36:28.114Z,4.23
2022-07-26T12:38:57.753Z,7.80
2022-07-26T12:41:37.026Z,7.03
2022-07-26T12:44:07.324Z,5.20
2022-07-26T12:46:36.518Z,5.70
2022-07-26T12:49:04.911Z,9.40
2022-07-26T12:51:32.595Z,14.57
2022-07-26T12:54:00.251Z,7.97
2022-07-26T12:56:27.687Z,8.27
2022-07-26T12:59:01.158Z,5.83
2022-07-26T13:01:32.016Z,5.70
2022-07-26T13:03:59.969Z,5.67
2022-07-26T13:06:27.635Z,7.17
2022-07-26T13:08:56.415Z,4.50
2022-07-26T13:11:24.073Z,6.73
2022-07-26T13:13:51.409Z,5.37
2022-07-26T13:16:18.848Z,3.17
2022-07-26T13:18:48.119Z,7.00
2022-07-26T13:21:15.492Z,5.67
2022-07-26T13:23:43.154Z,5.90
2022-07-26T13:26:10.652Z,7.03
2022-07-26T13:28:39.971Z,4.73
2022-07-26T13:31:07.512Z,4.43
2022-07-26T13:33:35.305Z,4.10
2022-07-26T13:36:04.244Z,6.53
2022-07-26T13:38:34.302Z,8.43
2022-07-26T13:41:02.886Z,7.33
2022-07-26T13:43:35.251Z,7.20
2022-07-26T13:46:02.999Z,5.97
2022-07-26T13:48:30.362Z,7.20
2022-07-26T13:50:58.041Z,5.40
2022-07-26T13:53:26.755Z,7.20
2022-07-26T13:55:54.270Z,7.00
2022-07-26T13:58:22.012Z,8.83
2022-07-26T14:00:49.684Z,4.97
2022-07-26T14:03:20.556Z,6.70
2022-07-26T14:05:48.606Z,7.90
2022-07-26T14:08:15.974Z,4.67
2022-07-26T14:10:44.804Z,4.93
2022-07-26T14:13:12.457Z,6.03
2022-07-26T14:15:39.790Z,4.10
2022-07-26T14:18:07.241Z,3.53
2022-07-26T14:20:34.650Z,5.93
2022-07-26T14:23:01.950Z,5.50
2022-07-26T14:25:29.258Z,8.13
2022-07-26T14:28:01.211Z,5.30
2022-07-26T14:30:32.245Z,4.40
2022-07-26T14:33:00.659Z,2.83
2022-07-26T14:35:28.238Z,4.20
2022-07-26T14:37:55.622Z,3.30
2022-07-26T14:40:23.047Z,3.43
2022-07-26T14:42:50.881Z,4.17
2022-07-26T14:45:20.000Z,4.80
2022-07-26T14:47:47.504Z,4.57
2022-07-26T14:50:15.742Z,5.40
2022-07-26T14:52:46.239Z,4.67
2022-07-26T14:55:14.810Z,5.57
2022-07-26T14:57:43.026Z,5.67
2022-07-26T15:00:14.739Z,8.63
2022-07-26T15:02:46.981Z,4.30
2022-07-26T15:05:15.780Z,4.37
2022-07-26T15:07:44.354Z,3.20
2022-07-26T15:10:13.898Z,4.37
2022-07-26T15:12:42.171Z,6.53
2022-07-26T15:15:11.165Z,6.13
2022-07-26T15:17:39.172Z,5.50
2022-07-26T15:20:09.337Z,5.03
2022-07-26T15:22:36.777Z,5.97
2022-07-26T15:25:05.188Z,2.57
2022-07-26T15:27:32.880Z,4.93
2022-07-26T15:30:05.066Z,4.70
2022-07-26T15:32:34.837Z,3.83
2022-07-26T15:35:02.793Z,5.13
2022-07-26T15:37:31.604Z,2.10
2022-07-26T15:39:59.708Z,4.53
2022-07-26T15:42:29.764Z,8.03
2022-07-26T15:44:57.240Z,5.07
2022-07-26T15:47:52.831Z,4.37
2022-07-26T15:50:14.719Z,2.60
2022-07-26T15:52:47.090Z,4.23
2022-07-26T15:55:17.894Z,4.30
2022-07-26T15:57:46.122Z,1.80
2022-07-26T16:00:16.129Z,2.70
2022-07-26T16:02:43.625Z,3.83
2022-07-26T16:05:12.262Z,7.97
2022-07-26T16:07:41.630Z,5.37
2022-07-26T16:10:13.796Z,2.73
2022-07-26T16:12:42.623Z,4.20
2022-07-26T16:15:12.177Z,4.10
2022-07-26T16:17:40.308Z,6.07
2022-07-26T16:20:09.283Z,4.20
2022-07-26T16:22:41.158Z,3.83
2022-07-26T16:25:13.707Z,2.87
2022-07-26T16:27:43.049Z,3.80
2022-07-26T16:30:13.081Z,3.87
2022-07-26T16:32:40.878Z,5.37
2022-07-26T16:35:09.615Z,5.00
2022-07-26T16:37:38.021Z,5.43
2022-07-26T16:40:07.684Z,5.53
2022-07-26T16:42:36.514Z,7.50
2022-07-26T16:45:04.675Z,4.63
2022-07-26T16:47:32.036Z,11.23
2022-07-26T16:49:59.415Z,4.60
2022-07-26T16:52:26.849Z,5.87
2022-07-26T16:54:54.138Z,4.83
2022-07-26T16:57:21.615Z,5.07
2022-07-26T16:59:50.489Z,3.77
2022-07-26T17:02:17.930Z,8.53
2022-07-26T17:04:45.319Z,2.83
2022-07-26T17:07:25.199Z,10.93
2022-07-26T17:09:55.298Z,5.63
2022-07-26T17:12:23.083Z,5.33
2022-07-26T17:14:52.023Z,5.40
2022-07-26T17:17:19.359Z,4.77
2022-07-26T17:19:47.022Z,5.67
2022-07-26T17:22:14.659Z,6.50
2022-07-26T17:24:42.057Z,7.23
2022-07-26T17:27:09.603Z,9.37
2022-07-26T17:29:36.977Z,6.83
2022-07-26T17:32:06.994Z,7.70
2022-07-26T17:34:34.767Z,5.47
2022-07-26T17:37:05.976Z,5.47
2022-07-26T17:39:52.285Z,4.63
2022-07-26T17:42:21.117Z,14.57
2022-07-26T17:44:48.509Z,6.23
2022-07-26T17:47:28.151Z,3.63
2022-07-26T17:50:14.090Z,3.17
2022-07-26T17:52:47.414Z,3.47
2022-07-26T17:55:14.991Z,5.20
2022-07-26T17:57:42.542Z,5.27
2022-07-26T18:00:11.590Z,5.57
2022-07-26T18:02:40.796Z,3.10
2022-07-26T18:05:09.116Z,5.23
2022-07-26T18:07:36.825Z,5.83
2022-07-26T18:10:05.786Z,5.17
2022-07-26T18:12:33.194Z,5.10
2022-07-26T18:15:00.529Z,5.53
2022-07-26T18:17:27.878Z,3.20
2022-07-26T18:19:56.569Z,3.90
2022-07-26T18:22:24.058Z,5.27
2022-07-26T18:24:51.469Z,3.93
2022-07-26T18:27:19.584Z,3.40
2022-07-26T18:29:47.164Z,2.20
2022-07-26T18:32:15.229Z,3.47
2022-07-26T18:34:51.664Z,2.13
2022-07-26T18:37:21.847Z,4.30
2022-07-26T18:39:52.833Z,3.33
2022-07-26T18:42:24.507Z,4.67
2022-07-26T18:44:52.013Z,3.63
2022-07-26T18:47:19.447Z,5.17
2022-07-26T18:49:46.867Z,1.97
2022-07-26T18:52:14.898Z,2.63
2022-07-26T18:54:43.698Z,1.97
2022-07-26T18:57:11.097Z,3.10
2022-07-26T18:59:38.758Z,4.27
2022-07-26T19:02:07.347Z,3.80
2022-07-26T19:04:34.847Z,5.13
2022-07-26T19:07:02.198Z,3.80
2022-07-26T19:09:29.564Z,3.63
2022-07-26T19:11:58.263Z,4.23
2022-07-26T19:14:25.734Z,3.53
2022-07-26T19:16:53.094Z,4.77
2022-07-26T19:19:20.392Z,2.60
2022-07-26T19:21:49.295Z,2.60
2022-07-26T19:24:16.712Z,8.27
2022-07-26T19:26:44.255Z,6.57
2022-07-26T19:29:13.467Z,8.43
2022-07-26T19:31:41.956Z,4.23
2022-07-26T19:34:09.363Z,5.60
2022-07-26T19:36:36.767Z,3.33
2022-07-26T19:39:04.621Z,2.97
2022-07-26T19:41:32.058Z,3.13
2022-07-26T19:43:59.607Z,2.50
2022-07-26T19:46:28.524Z,3.13
2022-07-26T19:48:56.060Z,1.93
2022-07-26T19:51:23.539Z,1.93
2022-07-26T19:53:51.196Z,3.40
2022-07-26T19:56:18.568Z,3.57
2022-07-26T19:58:46.241Z,3.47
2022-07-26T20:01:13.829Z,3.40
2022-07-26T20:03:42.645Z,3.40
2022-07-26T20:06:10.294Z,3.93
2022-07-26T20:08:37.814Z,5.37
2022-07-26T20:11:05.167Z,2.53
2022-07-26T20:13:32.658Z,2.00
2022-07-26T20:16:03.078Z,3.77
2022-07-26T20:18:30.857Z,5.80
2022-07-26T20:20:59.698Z,11.07
2022-07-26T20:23:28.786Z,4.60
2022-07-26T20:25:56.335Z,3.07
2022-07-26T20:28:23.676Z,4.47
2022-07-26T20:30:51.748Z,2.47
2022-07-26T20:33:19.366Z,2.93
2022-07-26T20:35:49.313Z,3.00
2022-07-26T20:38:21.727Z,2.63
2022-07-26T20:40:49.149Z,4.37
2022-07-26T20:43:17.229Z,2.70
2022-07-26T20:45:44.896Z,2.00
2022-07-26T20:48:12.240Z,1.80
2022-07-26T20:50:39.637Z,2.87
2022-07-26T20:53:06.933Z,2.47
2022-07-26T20:55:35.667Z,2.60
2022-07-26T20:58:03.156Z,3.43
2022-07-26T21:00:30.614Z,2.90
2022-07-26T21:03:00.183Z,6.23
2022-07-26T21:05:32.348Z,5.53
2022-07-26T21:08:00.297Z,2.53
2022-07-26T21:10:29.358Z,3.30
2022-07-26T21:13:00.357Z,3.20
2022-07-26T21:15:28.536Z,3.20
2022-07-26T21:17:56.121Z,3.33
2022-07-26T21:20:23.738Z,3.30
2022-07-26T21:22:51.096Z,2.80
2022-07-26T21:25:18.526Z,1.73
2022-07-26T21:27:45.927Z,3.90
2022-07-26T21:30:14.862Z,2.73
2022-07-26T21:32:42.198Z,2.73
2022-07-26T21:35:09.831Z,2.90
2022-07-26T21:37:37.166Z,2.17
2022-07-26T21:40:06.096Z,2.37
2022-07-26T21:42:33.486Z,4.37
2022-07-26T21:45:00.856Z,3.70
2022-07-26T21:47:29.647Z,6.20
2022-07-26T21:49:57.017Z,2.70
2022-07-26T21:52:24.387Z,2.60
2022-07-26T21:54:51.765Z,2.53
2022-07-26T21:57:19.140Z,3.37
2022-07-26T21:59:46.506Z,3.70
2022-07-26T22:02:14.120Z,2.80
2022-07-26T22:04:48.663Z,3.73
2022-07-26T22:07:16.169Z,3.33
2022-07-26T22:09:43.458Z,1.47
2022-07-26T22:12:11.548Z,2.83
2022-07-26T22:14:38.902Z,3.23
2022-07-26T22:17:06.257Z,3.40
2022-07-26T22:19:33.596Z,3.50
2022-07-26T22:22:05.462Z,2.90
2022-07-26T22:24:32.933Z,2.50
2022-07-26T22:27:00.268Z,3.37
2022-07-26T22:29:28.017Z,1.33
2022-07-26T22:32:07.212Z,2.20
2022-07-26T22:34:34.573Z,1.60
2022-07-26T22:37:03.261Z,4.73
2022-07-26T22:39:30.611Z,3.43
2022-07-26T22:42:14.833Z,3.93
2022-07-26T22:44:42.949Z,3.27
2022-07-26T22:47:10.299Z,3.10
2022-07-26T22:49:37.690Z,2.67
2022-07-26T22:52:06.792Z,3.90
2022-07-26T22:54:34.267Z,4.20
2022-07-26T22:57:01.687Z,2.63
2022-07-26T22:59:29.135Z,1.37
2022-07-26T23:01:56.979Z,2.80
2022-07-26T23:04:24.508Z,3.60
2022-07-26T23:06:52.362Z,6.10
2022-07-26T23:09:23.661Z,2.03
2022-07-26T23:11:50.966Z,2.07
2022-07-26T23:14:18.306Z,4.40
2022-07-26T23:16:45.697Z,3.83
2022-07-26T23:19:13.638Z,3.10
2022-07-26T23:21:41.222Z,3.03
2022-07-26T23:24:08.892Z,2.70
2022-07-26T23:26:38.223Z,3.83
2022-07-26T23:29:05.623Z,2.10
2022-07-26T23:31:32.976Z,3.77
2022-07-26T23:34:00.523Z,3.20
2022-07-26T23:36:28.932Z,4.03
2022-07-26T23:38:58.237Z,3.07
2022-07-26T23:41:27.044Z,1.77
2022-07-26T23:43:56.222Z,2.60
2022-07-26T23:46:25.224Z,4.20
2022-07-26T23:48:53.112Z,6.23
2022-07-26T23:51:22.782Z,4.73
2022-07-26T23:53:50.939Z,4.27
2022-07-26T23:56:18.528Z,2.73
2022-07-26T23:58:46.363Z,6.23
